Jamaica — CUGW5 — position and weather

sailwx.info

Track history (hours):
 
Tides and Currents Weather Stations Pressure Air Temp Water Temp Dewpoint Dewpoint Depression Visibility Wind Speed Wind Dir Waves Ship Positions

Jamaica

Last reported at 2017-Nov-17 15:43 UTC. Time now 2017-Nov-17 17:41 UTC.
Position N 39°21' W 009°22'.

Type: Fishing. MMSI: 263405550.

Date/timePositionNaut miles runAvg speedWind from/ knotsBaromVisibWave heightAir tempDewpointWater temp
2017-Nov-17 15:43N 39°21' W 009°22'0 0.0
2017-Nov-17 15:30N 39°21' W 009°22'  
2017-Nov-11 09:29N 38°24' W 010°04'4 4.1
2017-Nov-11 08:37N 38°22' W 010°01'1 4.7
2017-Nov-11 08:30N 38°21' W 009°60'3 5.5
2017-Nov-11 08:00N 38°20' W 009°57'2 3.4
2017-Nov-11 07:30N 38°19' W 009°55'1 1.4
2017-Nov-11 06:54N 38°20' W 009°56'3 7.0
2017-Nov-11 06:26N 38°21' W 009°60'5 7.1
2017-Nov-11 05:43N 38°22' W 010°06'2 7.5
2017-Nov-11 05:30N 38°22' W 010°08'4 7.5
2017-Nov-11 04:58N 38°23' W 010°13'8 0.7
2017-Nov-10 17:37N 38°23' W 010°03'7 7.4
2017-Nov-10 16:42N 38°22' W 009°55'1 7.2
2017-Nov-10 16:29N 38°22' W 009°53'4 7.2
2017-Nov-10 15:58N 38°21' W 009°48'4 7.3
2017-Nov-10 15:24N 38°21' W 009°43'3 7.3
2017-Nov-10 15:00N 38°21' W 009°39'4 7.2
2017-Nov-10 14:30N 38°22' W 009°35'4 7.3
2017-Nov-10 14:00N 38°22' W 009°30'4 7.4
2017-Nov-10 13:30N 38°22' W 009°25'4 7.6
2017-Nov-10 13:00N 38°23' W 009°20'4 7.8
2017-Nov-10 12:30N 38°24' W 009°16'6 8.0
2017-Nov-10 11:44N 38°25' W 009°08'1 6.1
2017-Nov-10 11:30N 38°26' W 009°07'1 1.1
2017-Nov-10 11:00N 38°26' W 009°07'0 0.0
2017-Nov-10 10:30N 38°26' W 009°07'0 0.0
2017-Nov-10 10:00N 38°26' W 009°07'0 0.3
2017-Nov-10 09:30N 38°26' W 009°07'0 0.0
2017-Nov-09 15:52N 38°26' W 009°07'0 0.0
2017-Nov-08 13:37N 38°26' W 009°07'0 0.0
2017-Nov-08 13:29N 38°26' W 009°07'0 0.3
2017-Nov-08 13:00N 38°26' W 009°07'0 0.0
2017-Nov-08 12:30N 38°26' W 009°07'0 0.0
2017-Nov-08 11:57N 38°26' W 009°07'0 0.0
2017-Nov-08 11:30N 38°26' W 009°07'0 0.0
2017-Nov-08 11:00N 38°26' W 009°07'0 0.0
2017-Nov-08 10:30N 38°26' W 009°07'0 0.0
2017-Nov-08 09:58N 38°26' W 009°07'0 0.0
2017-Nov-08 09:30N 38°26' W 009°07'0 0.0
2017-Nov-08 09:00N 38°26' W 009°07'0 0.0
2017-Nov-08 08:30N 38°26' W 009°07'1 2.3
2017-Nov-08 08:00N 38°25' W 009°08'5 8.5
2017-Nov-08 07:24N 38°23' W 009°14'4 8.3
2017-Nov-08 06:55N 38°23' W 009°19'3 8.1
2017-Nov-08 06:30N 38°23' W 009°23'4 7.8
2017-Nov-08 05:58N 38°23' W 009°28'6 7.8
2017-Nov-08 05:15N 38°23' W 009°35'  
Track history (hours):
 
Tides and Currents Weather Stations Pressure Air Temp Water Temp Dewpoint Dewpoint Depression Visibility Wind Speed Wind Dir Waves Ship Positions

Jamaica

Last reported at 2017-Nov-17 15:43 UTC. Time now 2017-Nov-17 17:41 UTC.
Position N 39°21' W 009°22'.

Type: Fishing. MMSI: 263405550.

Date/timePositionNaut miles runAvg speedWind from/ knotsBaromVisibWave heightAir tempDewpointWater temp
2017-Nov-17 15:43N 39°21' W 009°22'0 0.0
2017-Nov-17 15:30N 39°21' W 009°22'  
2017-Nov-11 09:29N 38°24' W 010°04'4 4.1
2017-Nov-11 08:37N 38°22' W 010°01'1 4.7
2017-Nov-11 08:30N 38°21' W 009°60'3 5.5
2017-Nov-11 08:00N 38°20' W 009°57'2 3.4
2017-Nov-11 07:30N 38°19' W 009°55'1 1.4
2017-Nov-11 06:54N 38°20' W 009°56'3 7.0
2017-Nov-11 06:26N 38°21' W 009°60'5 7.1
2017-Nov-11 05:43N 38°22' W 010°06'2 7.5
2017-Nov-11 05:30N 38°22' W 010°08'4 7.5
2017-Nov-11 04:58N 38°23' W 010°13'8 0.7
2017-Nov-10 17:37N 38°23' W 010°03'7 7.4
2017-Nov-10 16:42N 38°22' W 009°55'1 7.2
2017-Nov-10 16:29N 38°22' W 009°53'4 7.2
2017-Nov-10 15:58N 38°21' W 009°48'4 7.3
2017-Nov-10 15:24N 38°21' W 009°43'3 7.3
2017-Nov-10 15:00N 38°21' W 009°39'4 7.2
2017-Nov-10 14:30N 38°22' W 009°35'4 7.3
2017-Nov-10 14:00N 38°22' W 009°30'4 7.4
2017-Nov-10 13:30N 38°22' W 009°25'4 7.6
2017-Nov-10 13:00N 38°23' W 009°20'4 7.8
2017-Nov-10 12:30N 38°24' W 009°16'6 8.0
2017-Nov-10 11:44N 38°25' W 009°08'1 6.1
2017-Nov-10 11:30N 38°26' W 009°07'1 1.1
2017-Nov-10 11:00N 38°26' W 009°07'0 0.0
2017-Nov-10 10:30N 38°26' W 009°07'0 0.0
2017-Nov-10 10:00N 38°26' W 009°07'0 0.3
2017-Nov-10 09:30N 38°26' W 009°07'0 0.0
2017-Nov-09 15:52N 38°26' W 009°07'0 0.0
2017-Nov-08 13:37N 38°26' W 009°07'0 0.0
2017-Nov-08 13:29N 38°26' W 009°07'0 0.3
2017-Nov-08 13:00N 38°26' W 009°07'0 0.0
2017-Nov-08 12:30N 38°26' W 009°07'0 0.0
2017-Nov-08 11:57N 38°26' W 009°07'0 0.0
2017-Nov-08 11:30N 38°26' W 009°07'0 0.0
2017-Nov-08 11:00N 38°26' W 009°07'0 0.0
2017-Nov-08 10:30N 38°26' W 009°07'0 0.0
2017-Nov-08 09:58N 38°26' W 009°07'0 0.0
2017-Nov-08 09:30N 38°26' W 009°07'0 0.0
2017-Nov-08 09:00N 38°26' W 009°07'0 0.0
2017-Nov-08 08:30N 38°26' W 009°07'1 2.3
2017-Nov-08 08:00N 38°25' W 009°08'5 8.5
2017-Nov-08 07:24N 38°23' W 009°14'4 8.3
2017-Nov-08 06:55N 38°23' W 009°19'3 8.1
2017-Nov-08 06:30N 38°23' W 009°23'4 7.8
2017-Nov-08 05:58N 38°23' W 009°28'6 7.8
2017-Nov-08 05:15N 38°23' W 009°35'  

Dump ship's entire track history